createdAt,value
2022-08-31T00:02:41.583Z,2.22
2022-08-31T00:05:09.462Z,2.28
2022-08-31T00:07:36.311Z,2.03
2022-08-31T00:10:14.273Z,1.73
2022-08-31T00:12:41.892Z,1.98
2022-08-31T00:15:10.704Z,1.80
2022-08-31T00:17:37.823Z,1.75
2022-08-31T00:20:06.206Z,2.05
2022-08-31T00:22:32.965Z,2.17
2022-08-31T00:24:59.696Z,1.63
2022-08-31T00:27:27.964Z,1.90
2022-08-31T00:29:54.670Z,1.90
2022-08-31T00:32:25.367Z,2.00
2022-08-31T00:34:55.629Z,1.90
2022-08-31T00:37:22.316Z,2.20
2022-08-31T00:39:49.009Z,2.08
2022-08-31T00:42:15.757Z,1.90
2022-08-31T00:44:43.801Z,1.80
2022-08-31T00:47:10.649Z,1.85
2022-08-31T00:49:39.744Z,1.85
2022-08-31T00:52:09.598Z,2.13
2022-08-31T00:54:39.402Z,1.98
2022-08-31T00:57:07.599Z,1.92
2022-08-31T00:59:35.352Z,1.77
2022-08-31T01:02:04.535Z,1.90
2022-08-31T01:04:31.482Z,2.20
2022-08-31T01:06:58.594Z,1.83
2022-08-31T01:09:27.253Z,1.83
2022-08-31T01:11:54.169Z,2.13
2022-08-31T01:14:21.142Z,1.88
2022-08-31T01:16:52.489Z,2.13
2022-08-31T01:19:27.542Z,2.38
2022-08-31T01:22:00.102Z,1.90
2022-08-31T01:24:29.089Z,2.17
2022-08-31T01:26:57.063Z,2.05
2022-08-31T01:29:23.810Z,1.80
2022-08-31T01:31:50.563Z,1.83
2022-08-31T01:34:17.408Z,2.10
2022-08-31T01:36:44.785Z,2.35
2022-08-31T01:39:11.658Z,2.00
2022-08-31T01:41:43.708Z,2.20
2022-08-31T01:44:11.156Z,1.80
2022-08-31T01:46:37.984Z,1.95
2022-08-31T01:49:05.185Z,2.00
2022-08-31T01:51:31.867Z,2.42
2022-08-31T01:53:59.003Z,2.15
2022-08-31T01:56:27.946Z,1.88
2022-08-31T01:58:56.064Z,2.10
2022-08-31T02:01:34.217Z,2.20
2022-08-31T02:04:02.150Z,2.10
2022-08-31T02:06:28.979Z,2.47
2022-08-31T02:08:55.914Z,1.95
2022-08-31T02:11:22.748Z,2.38
2022-08-31T02:13:49.469Z,1.90
2022-08-31T02:16:17.700Z,2.08
2022-08-31T02:18:44.434Z,2.00
2022-08-31T02:21:13.550Z,1.98
2022-08-31T02:23:40.342Z,2.03
2022-08-31T02:26:07.236Z,1.90
2022-08-31T02:28:33.998Z,2.28
2022-08-31T02:31:00.910Z,2.50
2022-08-31T02:33:29.048Z,1.73
2022-08-31T02:35:58.374Z,1.80
2022-08-31T02:38:25.193Z,2.22
2022-08-31T02:40:53.964Z,1.85
2022-08-31T02:43:24.815Z,2.20
2022-08-31T02:45:53.498Z,2.10
2022-08-31T02:48:21.444Z,1.95
2022-08-31T02:50:51.336Z,2.55
2022-08-31T02:53:19.984Z,1.98
2022-08-31T02:55:46.799Z,2.45
2022-08-31T02:58:14.211Z,2.10
2022-08-31T03:00:44.795Z,2.30
2022-08-31T03:03:11.783Z,2.03
2022-08-31T03:05:38.652Z,2.42
2022-08-31T03:08:07.411Z,2.35
2022-08-31T03:10:34.195Z,1.88
2022-08-31T03:13:01.259Z,2.10
2022-08-31T03:15:28.624Z,2.47
2022-08-31T03:17:55.446Z,2.00
2022-08-31T03:20:24.514Z,1.85
2022-08-31T03:22:51.220Z,2.10
2022-08-31T03:25:21.380Z,2.53
2022-08-31T03:27:48.171Z,2.08
2022-08-31T03:30:18.061Z,2.17
2022-08-31T03:32:45.603Z,1.90
2022-08-31T03:35:12.801Z,2.45
2022-08-31T03:37:39.518Z,2.00
2022-08-31T03:40:08.265Z,1.95
2022-08-31T03:42:36.476Z,1.95
2022-08-31T03:45:03.814Z,2.17
2022-08-31T03:47:31.041Z,2.35
2022-08-31T03:49:58.786Z,2.50
2022-08-31T03:52:25.530Z,2.10
2022-08-31T03:54:53.116Z,2.55
2022-08-31T03:57:19.819Z,2.40
2022-08-31T03:59:47.999Z,2.30
2022-08-31T04:02:14.750Z,2.63
2022-08-31T04:04:41.458Z,2.25
2022-08-31T04:07:08.182Z,2.20
2022-08-31T04:09:34.934Z,2.10
2022-08-31T04:12:01.972Z,2.28
2022-08-31T04:14:28.642Z,2.40
2022-08-31T04:16:56.774Z,1.90
2022-08-31T04:19:24.891Z,2.55
2022-08-31T04:21:51.616Z,2.35
2022-08-31T04:24:18.380Z,2.25
2022-08-31T04:26:45.192Z,2.17
2022-08-31T04:29:13.624Z,1.83
2022-08-31T04:31:40.895Z,2.65
2022-08-31T04:34:08.956Z,2.13
2022-08-31T04:36:35.952Z,2.10
2022-08-31T04:39:04.249Z,2.28
2022-08-31T04:41:32.567Z,2.58
2022-08-31T04:44:00.567Z,1.95
2022-08-31T04:46:28.461Z,2.08
2022-08-31T04:48:55.444Z,2.00
2022-08-31T04:51:25.599Z,1.80
2022-08-31T04:53:53.129Z,2.10
2022-08-31T04:56:21.411Z,1.80
2022-08-31T04:58:49.494Z,1.73
2022-08-31T05:01:18.006Z,1.58
2022-08-31T05:03:45.100Z,1.70
2022-08-31T05:06:14.819Z,1.67
2022-08-31T05:08:43.158Z,1.83
2022-08-31T05:11:10.400Z,1.92
2022-08-31T05:13:37.872Z,1.85
2022-08-31T05:16:05.041Z,1.77
2022-08-31T05:18:32.141Z,1.90
2022-08-31T05:20:58.905Z,1.58
2022-08-31T05:23:25.771Z,1.90
2022-08-31T05:25:53.918Z,1.67
2022-08-31T05:28:23.453Z,2.10
2022-08-31T05:30:50.283Z,1.70
2022-08-31T05:33:17.084Z,2.00
2022-08-31T05:35:44.720Z,1.70
2022-08-31T05:38:11.426Z,1.63
2022-08-31T05:40:38.172Z,1.67
2022-08-31T05:43:06.343Z,1.95
2022-08-31T05:45:33.082Z,1.67
2022-08-31T05:47:59.846Z,2.08
2022-08-31T05:50:26.561Z,1.70
2022-08-31T05:52:53.258Z,1.70
2022-08-31T05:55:19.977Z,1.88
2022-08-31T05:57:46.718Z,1.42
2022-08-31T06:00:15.403Z,1.60
2022-08-31T06:02:42.358Z,1.73
2022-08-31T06:05:09.291Z,1.70
2022-08-31T06:07:36.046Z,1.55
2022-08-31T06:10:03.134Z,1.80
2022-08-31T06:12:34.265Z,1.48
2022-08-31T06:15:05.188Z,2.00
2022-08-31T06:17:34.325Z,1.73
2022-08-31T06:20:01.312Z,1.88
2022-08-31T06:22:29.255Z,1.70
2022-08-31T06:24:56.243Z,1.85
2022-08-31T06:27:24.340Z,1.67
2022-08-31T06:29:51.037Z,1.92
2022-08-31T06:32:17.889Z,1.70
2022-08-31T06:34:46.074Z,1.77
2022-08-31T06:37:18.927Z,1.67
2022-08-31T06:39:46.613Z,1.95
2022-08-31T06:42:13.371Z,1.58
2022-08-31T06:44:40.083Z,1.52
2022-08-31T06:47:06.906Z,1.30
2022-08-31T06:49:33.586Z,1.50
2022-08-31T06:52:01.744Z,1.67
2022-08-31T06:54:30.121Z,1.85
2022-08-31T06:56:58.410Z,1.42
2022-08-31T06:59:28.437Z,1.50
2022-08-31T07:01:55.818Z,1.40
2022-08-31T07:04:22.601Z,1.17
2022-08-31T07:06:49.692Z,1.20
2022-08-31T07:09:18.053Z,1.30
2022-08-31T07:11:46.717Z,1.27
2022-08-31T07:14:17.345Z,1.20
2022-08-31T07:16:44.962Z,1.27
2022-08-31T07:19:12.498Z,1.30
2022-08-31T07:21:41.419Z,1.10
2022-08-31T07:24:08.717Z,1.20
2022-08-31T07:26:39.024Z,1.30
2022-08-31T07:29:07.504Z,1.40
2022-08-31T07:31:42.715Z,1.35
2022-08-31T07:36:58.788Z,1.45
2022-08-31T07:39:44.684Z,1.40
2022-08-31T07:42:14.120Z,1.33
2022-08-31T07:44:43.419Z,1.45
2022-08-31T07:47:20.634Z,1.33
2022-08-31T07:49:51.335Z,1.45
2022-08-31T07:52:23.782Z,1.17
2022-08-31T07:54:51.618Z,1.38
2022-08-31T07:57:22.020Z,1.30
2022-08-31T07:59:54.652Z,1.50
2022-08-31T08:02:21.602Z,1.40
2022-08-31T08:04:51.035Z,1.42
2022-08-31T08:07:18.349Z,1.40
2022-08-31T08:09:48.221Z,1.40
2022-08-31T08:12:15.255Z,1.40
2022-08-31T08:14:43.344Z,1.52
2022-08-31T08:17:10.239Z,1.42
2022-08-31T08:19:37.060Z,1.40
2022-08-31T08:22:03.996Z,1.30
2022-08-31T08:24:31.709Z,1.50
2022-08-31T08:26:59.230Z,1.30
2022-08-31T08:29:27.338Z,1.60
2022-08-31T08:31:56.033Z,1.40
2022-08-31T08:34:32.183Z,1.23
2022-08-31T08:36:59.477Z,1.60
2022-08-31T08:39:26.199Z,1.45
2022-08-31T08:41:54.990Z,1.77
2022-08-31T08:44:23.674Z,1.20
2022-08-31T08:46:52.818Z,1.33
2022-08-31T08:49:25.146Z,1.30
2022-08-31T08:51:54.841Z,1.50
2022-08-31T08:54:28.824Z,1.45
2022-08-31T08:56:59.579Z,1.30
2022-08-31T08:59:28.718Z,1.60
2022-08-31T09:02:05.021Z,1.60
2022-08-31T09:05:06.127Z,1.52
2022-08-31T09:07:54.234Z,1.48
2022-08-31T09:10:26.299Z,1.40
2022-08-31T09:13:01.700Z,1.42
2022-08-31T09:15:48.349Z,1.30
2022-08-31T09:18:29.022Z,1.70
2022-08-31T09:21:05.526Z,1.13
2022-08-31T09:23:36.766Z,1.30
2022-08-31T09:26:08.198Z,1.75
2022-08-31T09:28:37.091Z,1.67
2022-08-31T09:31:04.016Z,1.20
2022-08-31T09:33:33.001Z,1.40
2022-08-31T09:36:15.739Z,1.23
2022-08-31T09:38:47.060Z,1.60
2022-08-31T09:41:30.250Z,1.33
2022-08-31T09:44:18.122Z,1.75
2022-08-31T09:46:47.975Z,1.10
2022-08-31T09:49:19.785Z,1.08
2022-08-31T09:51:49.200Z,1.45
2022-08-31T09:54:44.378Z,1.30
2022-08-31T09:57:13.906Z,1.30
2022-08-31T09:59:43.961Z,1.00
2022-08-31T10:02:12.956Z,1.00
2022-08-31T10:04:51.147Z,1.02
2022-08-31T10:07:28.811Z,1.40
2022-08-31T10:09:59.133Z,1.35
2022-08-31T10:12:32.562Z,1.40
2022-08-31T10:15:05.596Z,1.10
2022-08-31T10:17:37.992Z,1.38
2022-08-31T10:20:08.367Z,1.98
2022-08-31T10:22:41.847Z,1.33
2022-08-31T10:25:15.671Z,1.00
2022-08-31T10:27:46.612Z,1.13
2022-08-31T10:30:21.326Z,1.25
2022-08-31T10:32:53.683Z,1.30
2022-08-31T10:35:24.018Z,1.17
2022-08-31T10:37:58.953Z,0.98
2022-08-31T10:40:32.082Z,0.93
2022-08-31T10:43:09.395Z,1.00
2022-08-31T10:45:39.923Z,1.10
2022-08-31T10:48:06.991Z,1.00
2022-08-31T10:50:45.131Z,1.20
2022-08-31T10:53:22.439Z,1.02
2022-08-31T10:55:54.159Z,0.90
2022-08-31T10:58:28.104Z,1.00
2022-08-31T11:01:04.209Z,1.50
2022-08-31T11:03:52.859Z,0.90
2022-08-31T11:06:23.823Z,0.90
2022-08-31T11:08:58.345Z,0.98
2022-08-31T11:11:35.889Z,0.80
2022-08-31T11:14:30.451Z,0.88
2022-08-31T11:17:13.207Z,0.80
2022-08-31T11:19:56.200Z,0.88
2022-08-31T11:22:36.936Z,1.02
2022-08-31T11:25:25.055Z,0.82
2022-08-31T11:27:55.260Z,1.13
2022-08-31T11:30:29.075Z,1.10
2022-08-31T11:32:57.742Z,0.82
2022-08-31T11:36:06.343Z,1.20
2022-08-31T11:38:48.832Z,0.77
2022-08-31T11:41:46.595Z,0.90
2022-08-31T11:44:44.489Z,1.20
2022-08-31T11:47:16.257Z,1.10
2022-08-31T11:49:46.699Z,1.52
2022-08-31T11:52:32.122Z,0.80
2022-08-31T11:55:08.013Z,1.00
2022-08-31T11:58:25.923Z,1.40
2022-08-31T12:01:25.372Z,1.33
2022-08-31T12:03:55.727Z,0.90
2022-08-31T12:07:08.464Z,0.90
2022-08-31T12:10:07.054Z,1.35
2022-08-31T12:12:45.442Z,1.40
2022-08-31T12:15:19.492Z,1.20
2022-08-31T12:17:55.953Z,1.35
2022-08-31T12:20:28.519Z,1.33
2022-08-31T12:23:30.693Z,1.05
2022-08-31T12:26:06.819Z,1.50
2022-08-31T12:28:50.263Z,1.50
2022-08-31T12:31:18.216Z,1.48
2022-08-31T12:33:50.801Z,1.60
2022-08-31T12:36:26.109Z,1.55
2022-08-31T12:39:06.573Z,1.40
2022-08-31T12:41:33.546Z,1.80
2022-08-31T12:44:00.612Z,2.22
2022-08-31T12:46:43.990Z,1.48
2022-08-31T12:49:37.255Z,1.88
2022-08-31T12:52:13.147Z,1.85
2022-08-31T12:54:59.499Z,1.90
2022-08-31T12:57:37.665Z,1.60
2022-08-31T13:00:12.994Z,1.58
2022-08-31T13:02:43.377Z,1.50
2022-08-31T13:05:22.431Z,1.70
2022-08-31T13:07:51.339Z,1.50
2022-08-31T13:10:30.359Z,1.35
2022-08-31T13:13:00.227Z,1.60
2022-08-31T13:15:28.608Z,2.00
2022-08-31T13:17:55.848Z,1.98
2022-08-31T13:20:27.454Z,1.40
2022-08-31T13:23:02.375Z,1.50
2022-08-31T13:25:37.402Z,1.70
2022-08-31T13:28:07.314Z,1.55
2022-08-31T13:30:39.809Z,1.40
2022-08-31T13:33:22.280Z,1.27
2022-08-31T13:35:50.922Z,1.30
2022-08-31T13:38:39.112Z,1.17
2022-08-31T13:41:07.288Z,1.90
2022-08-31T13:43:37.368Z,1.67
2022-08-31T13:46:05.216Z,1.90
2022-08-31T13:48:33.767Z,1.80
2022-08-31T13:51:07.038Z,1.02
2022-08-31T13:53:39.842Z,1.30
2022-08-31T13:56:42.709Z,1.55
2022-08-31T13:59:24.572Z,1.40
2022-08-31T14:01:53.438Z,1.30
2022-08-31T14:05:03.452Z,1.50
2022-08-31T14:07:51.850Z,1.30
2022-08-31T14:10:22.278Z,1.25
2022-08-31T14:12:52.549Z,1.20
2022-08-31T14:15:35.452Z,1.42
2022-08-31T14:18:24.427Z,1.20
2022-08-31T14:21:22.834Z,1.23
2022-08-31T14:23:52.059Z,1.33
2022-08-31T14:26:26.331Z,1.85
2022-08-31T14:28:55.464Z,1.27
2022-08-31T14:31:25.145Z,1.20
2022-08-31T14:33:57.579Z,1.33
2022-08-31T14:36:25.538Z,1.45
2022-08-31T14:38:54.319Z,1.50
2022-08-31T14:41:28.029Z,1.20
2022-08-31T14:43:56.607Z,1.23
2022-08-31T14:46:28.193Z,1.10
2022-08-31T14:48:56.395Z,1.77
2022-08-31T14:51:24.000Z,1.38
2022-08-31T14:53:56.852Z,1.20
2022-08-31T14:56:30.493Z,1.38
2022-08-31T14:58:58.392Z,1.42
2022-08-31T15:01:26.683Z,1.40
2022-08-31T15:03:53.509Z,1.25
2022-08-31T15:06:20.712Z,1.40
2022-08-31T15:08:47.926Z,1.50
2022-08-31T15:11:14.810Z,1.60
2022-08-31T15:13:43.025Z,1.40
2022-08-31T15:16:13.298Z,1.50
2022-08-31T15:18:42.273Z,1.60
2022-08-31T15:21:11.137Z,1.73
2022-08-31T15:23:41.693Z,1.40
2022-08-31T15:26:10.450Z,1.40
2022-08-31T15:28:41.999Z,1.08
2022-08-31T15:31:20.139Z,1.33
2022-08-31T15:33:49.311Z,1.48
2022-08-31T15:36:18.474Z,1.20
2022-08-31T15:38:45.729Z,1.45
2022-08-31T15:41:12.662Z,1.52
2022-08-31T15:43:42.665Z,1.48
2022-08-31T15:46:14.166Z,1.50
2022-08-31T15:48:45.265Z,1.30
2022-08-31T15:51:17.754Z,1.17
2022-08-31T15:53:52.688Z,1.08
2022-08-31T15:56:29.396Z,1.60
2022-08-31T15:58:58.555Z,1.17
2022-08-31T16:01:26.669Z,1.35
2022-08-31T16:03:55.936Z,1.20
2022-08-31T16:06:25.827Z,1.20
2022-08-31T16:08:55.330Z,1.63
2022-08-31T16:11:23.748Z,1.25
2022-08-31T16:14:00.089Z,1.30
2022-08-31T16:16:31.876Z,1.17
2022-08-31T16:19:04.424Z,1.10
2022-08-31T16:21:34.412Z,1.40
2022-08-31T16:24:04.085Z,1.27
2022-08-31T16:26:32.535Z,1.25
2022-08-31T16:29:00.750Z,1.30
2022-08-31T16:31:30.096Z,1.30
2022-08-31T16:33:57.253Z,1.45
2022-08-31T16:36:26.551Z,1.30
2022-08-31T16:38:54.564Z,1.10
2022-08-31T16:41:24.276Z,1.50
2022-08-31T16:44:09.562Z,1.25
2022-08-31T16:46:40.868Z,1.15
2022-08-31T16:49:26.757Z,1.10
2022-08-31T16:54:20.495Z,1.15
2022-08-31T16:56:52.169Z,1.10
2022-08-31T16:59:19.141Z,1.00
2022-08-31T17:01:47.662Z,1.20
2022-08-31T17:04:29.263Z,1.10
2022-08-31T17:07:03.146Z,1.63
2022-08-31T17:09:30.011Z,1.20
2022-08-31T17:11:59.164Z,1.40
2022-08-31T17:14:35.612Z,1.40
2022-08-31T17:17:06.937Z,1.25
2022-08-31T17:19:34.401Z,1.23
2022-08-31T17:22:03.357Z,1.40
2022-08-31T17:24:33.592Z,1.30
2022-08-31T17:27:02.551Z,1.30
2022-08-31T17:29:34.037Z,1.20
2022-08-31T17:32:04.671Z,1.15
2022-08-31T17:34:34.856Z,1.30
2022-08-31T17:37:04.940Z,1.20
2022-08-31T17:39:32.194Z,1.27
2022-08-31T17:41:59.212Z,1.30
2022-08-31T17:44:29.017Z,1.25
2022-08-31T17:46:55.964Z,1.30
2022-08-31T17:49:26.054Z,1.30
2022-08-31T17:51:54.217Z,1.38
2022-08-31T17:54:23.195Z,1.02
2022-08-31T17:56:53.493Z,1.27
2022-08-31T17:59:22.028Z,1.10
2022-08-31T18:01:52.309Z,1.30
2022-08-31T18:04:20.471Z,1.40
2022-08-31T18:06:51.687Z,1.30
2022-08-31T18:09:20.808Z,1.00
2022-08-31T18:11:47.771Z,1.02
2022-08-31T18:14:15.163Z,1.10
2022-08-31T18:16:42.131Z,1.40
2022-08-31T18:19:09.492Z,1.17
2022-08-31T18:21:36.888Z,1.20
2022-08-31T18:24:08.298Z,1.38
2022-08-31T18:26:41.722Z,1.23
2022-08-31T18:29:14.840Z,1.40
2022-08-31T18:31:45.386Z,1.50
2022-08-31T18:34:14.281Z,1.20
2022-08-31T18:36:41.974Z,1.55
2022-08-31T18:39:11.464Z,1.40
2022-08-31T18:41:56.982Z,1.45
2022-08-31T18:47:10.454Z,1.45
2022-08-31T18:49:40.698Z,1.30
2022-08-31T18:52:09.403Z,1.48
2022-08-31T18:54:37.503Z,1.20
2022-08-31T18:57:04.500Z,1.15
2022-08-31T18:59:31.281Z,1.25
2022-08-31T19:01:58.388Z,1.20
2022-08-31T19:04:25.215Z,1.30
2022-08-31T19:06:52.169Z,1.27
2022-08-31T19:09:19.145Z,1.70
2022-08-31T19:11:51.443Z,1.55
2022-08-31T19:14:19.688Z,1.70
2022-08-31T19:16:53.796Z,1.27
2022-08-31T19:19:29.018Z,1.50
2022-08-31T19:21:55.958Z,1.20
2022-08-31T19:24:23.283Z,1.13
2022-08-31T19:26:52.887Z,1.50
2022-08-31T19:29:25.573Z,1.80
2022-08-31T19:31:54.050Z,1.38
2022-08-31T19:34:23.391Z,1.88
2022-08-31T19:36:54.523Z,1.40
2022-08-31T19:39:24.594Z,1.42
2022-08-31T19:41:55.535Z,1.70
2022-08-31T19:44:22.999Z,1.35
2022-08-31T19:46:53.142Z,1.25
2022-08-31T19:49:20.005Z,1.70
2022-08-31T19:51:51.837Z,1.40
2022-08-31T19:54:19.557Z,1.73
2022-08-31T19:56:46.925Z,1.60
2022-08-31T19:59:18.351Z,1.10
2022-08-31T20:01:45.912Z,1.48
2022-08-31T20:04:16.689Z,1.30
2022-08-31T20:06:45.263Z,1.00
2022-08-31T20:09:12.797Z,1.15
2022-08-31T20:11:40.238Z,0.90
2022-08-31T20:14:07.279Z,0.80
2022-08-31T20:16:44.354Z,0.90
2022-08-31T20:19:14.041Z,0.90
2022-08-31T20:21:42.086Z,0.63
2022-08-31T20:24:11.305Z,0.80
2022-08-31T20:26:47.359Z,1.00
2022-08-31T20:29:19.473Z,1.00
2022-08-31T20:31:49.432Z,0.98
2022-08-31T20:34:18.809Z,0.90
2022-08-31T20:36:50.081Z,0.93
2022-08-31T20:39:18.295Z,1.08
2022-08-31T20:41:46.724Z,0.90
2022-08-31T20:44:16.300Z,1.15
2022-08-31T20:47:03.596Z,0.90
2022-08-31T20:49:33.287Z,1.10
2022-08-31T20:52:01.866Z,0.85
2022-08-31T20:54:33.331Z,0.90
2022-08-31T20:57:02.117Z,1.00
2022-08-31T20:59:29.273Z,1.00
2022-08-31T21:02:02.027Z,1.05
2022-08-31T21:04:31.817Z,0.90
2022-08-31T21:07:00.433Z,0.95
2022-08-31T21:09:27.424Z,1.17
2022-08-31T21:11:56.014Z,0.88
2022-08-31T21:14:27.049Z,0.95
2022-08-31T21:16:54.158Z,0.85
2022-08-31T21:19:22.607Z,1.10
2022-08-31T21:21:52.965Z,1.73
2022-08-31T21:24:21.489Z,1.00
2022-08-31T21:26:48.948Z,1.02
2022-08-31T21:29:17.946Z,1.10
2022-08-31T21:31:52.048Z,1.00
2022-08-31T21:34:25.227Z,0.90
2022-08-31T21:36:53.398Z,0.77
2022-08-31T21:39:21.396Z,1.23
2022-08-31T21:41:48.504Z,0.90
2022-08-31T21:44:17.142Z,0.85
2022-08-31T21:46:49.821Z,0.77
2022-08-31T21:49:18.041Z,0.88
2022-08-31T21:51:46.282Z,0.80
2022-08-31T21:54:15.299Z,0.77
2022-08-31T21:56:46.371Z,1.08
2022-08-31T21:59:15.159Z,0.60
2022-08-31T22:01:42.796Z,1.05
2022-08-31T22:04:10.270Z,0.88
2022-08-31T22:06:37.802Z,0.98
2022-08-31T22:09:06.925Z,0.60
2022-08-31T22:11:37.299Z,1.00
2022-08-31T22:14:07.669Z,0.80
2022-08-31T22:16:35.945Z,0.90
2022-08-31T22:19:03.171Z,0.80
2022-08-31T22:21:32.312Z,1.10
2022-08-31T22:24:01.017Z,0.95
2022-08-31T22:26:30.470Z,0.70
2022-08-31T22:28:59.352Z,0.70
2022-08-31T22:31:27.459Z,0.70
2022-08-31T22:33:54.351Z,0.73
2022-08-31T22:36:30.901Z,0.77
2022-08-31T22:38:59.311Z,0.70
2022-08-31T22:41:26.020Z,0.63
2022-08-31T22:43:52.717Z,0.90
2022-08-31T22:46:20.879Z,0.93
2022-08-31T22:48:47.853Z,0.85
2022-08-31T22:51:16.363Z,0.80
2022-08-31T22:53:45.005Z,0.98
2022-08-31T22:56:13.733Z,0.70
2022-08-31T22:58:40.941Z,0.95
2022-08-31T23:01:16.965Z,0.82
2022-08-31T23:03:46.946Z,1.00
2022-08-31T23:06:14.110Z,0.88
2022-08-31T23:08:43.103Z,0.70
2022-08-31T23:11:10.247Z,0.70
2022-08-31T23:13:52.346Z,0.70
2022-08-31T23:16:19.589Z,0.80
2022-08-31T23:18:51.504Z,0.90
2022-08-31T23:21:18.853Z,0.90
2022-08-31T23:23:45.888Z,1.02
2022-08-31T23:26:13.031Z,0.98
2022-08-31T23:28:40.248Z,1.00
2022-08-31T23:31:07.733Z,1.15
2022-08-31T23:33:34.653Z,1.17
2022-08-31T23:36:03.928Z,1.30
2022-08-31T23:38:31.322Z,1.00
2022-08-31T23:40:58.240Z,1.15
2022-08-31T23:43:26.813Z,1.02
2022-08-31T23:45:55.271Z,1.00
2022-08-31T23:48:23.052Z,1.40
2022-08-31T23:50:51.063Z,1.00
2022-08-31T23:53:19.224Z,1.02
2022-08-31T23:55:47.351Z,1.00
2022-08-31T23:58:16.161Z,0.90
